Armadores I — SY8463 — position and weather

sailwx.info

Track history (hours):
 
Tides and Currents Weather Stations Pressure Air Temp Water Temp Dewpoint Dewpoint Depression Visibility Wind Speed Wind Dir Waves Ship Positions

Armadores I

Last reported at 2015-Jan-29 11:34 UTC. Time now 2015-Jan-29 12:22 UTC.
Position N 37°58' E 023°36'.

Length 32 m; draft 5.3 m.

Type: Tug. MMSI: 240694000.

Date/timePositionNaut miles runAvg speedWind from/ knotsBaromVisibWave heightAir tempDewpointWater temp
2015-Jan-29 11:34N 37°58' E 023°36'1 0.5
2015-Jan-29 10:33N 37°57' E 023°36'0 0.3
2015-Jan-29 09:33N 37°57' E 023°36'0 0.4
2015-Jan-29 08:33N 37°57' E 023°37'0 0.0
2015-Jan-29 07:33N 37°57' E 023°37'0 0.0
2015-Jan-29 06:33N 37°57' E 023°37'1 1.0
2015-Jan-29 05:33N 37°57' E 023°36'1 1.0
2015-Jan-29 04:33N 37°57' E 023°37'0 0.0
2015-Jan-28 15:07N 37°57' E 023°36'0 0.0
2015-Jan-28 14:33N 37°57' E 023°36'0 0.4
2015-Jan-28 13:33N 37°57' E 023°37'2 2.2
2015-Jan-28 12:33N 37°58' E 023°34'1 1.1
2015-Jan-28 11:33N 37°58' E 023°33'4 3.7
2015-Jan-28 10:33N 38°02' E 023°32'3 2.7
2015-Jan-28 09:33N 38°01' E 023°36'0 0.1
2015-Jan-28 08:33N 38°02' E 023°36'2 2.0
2015-Jan-28 07:33N 38°00' E 023°34'3 3.2
2015-Jan-28 06:33N 37°57' E 023°34'2 1.7
2015-Jan-28 05:33N 37°56' E 023°35'2 1.6
2015-Jan-28 04:33N 37°57' E 023°35'1 0.1
2015-Jan-27 17:27N 37°57' E 023°37'1 0.7
2015-Jan-27 16:34N 37°57' E 023°36'1 0.7
2015-Jan-27 15:33N 37°57' E 023°37'0 0.0
2015-Jan-27 14:33N 37°57' E 023°37'1 1.2
2015-Jan-27 13:33N 37°57' E 023°35'1 1.2
2015-Jan-27 12:34N 37°57' E 023°37'0 0.0
2015-Jan-27 11:34N 37°57' E 023°37'0 0.0
2015-Jan-27 10:33N 37°57' E 023°37'0 0.0
2015-Jan-27 09:33N 37°57' E 023°37'0 0.0
2015-Jan-27 08:33N 37°57' E 023°37'0 0.0
2015-Jan-27 07:34N 37°57' E 023°37'1 1.1
2015-Jan-27 06:33N 37°57' E 023°35'1 1.3
2015-Jan-27 05:33N 37°56' E 023°36'1 1.2
2015-Jan-27 04:34N 37°57' E 023°35'0 0.0
2015-Jan-26 13:33N 37°57' E 023°35'5 4.6
2015-Jan-26 12:33N 38°02' E 023°36'4 4.4
2015-Jan-26 11:33N 37°58' E 023°33'1 1.4
2015-Jan-26 10:33N 37°57' E 023°35'0 0.5
2015-Jan-26 09:33N 37°57' E 023°35'1 0.5
2015-Jan-26 08:33N 37°57' E 023°36'0 0.3
2015-Jan-26 07:33N 37°57' E 023°35'1 1.0
2015-Jan-26 06:33N 37°57' E 023°37'0 0.0
2015-Jan-26 05:34N 37°57' E 023°37'0 0.0
2015-Jan-26 04:34N 37°57' E 023°37'0 0.0
2015-Jan-25 16:33N 37°57' E 023°36'6 5.8
2015-Jan-25 15:31N 38°02' E 023°32'4 3.4
2015-Jan-25 14:11N 37°58' E 023°33'2 2.5
2015-Jan-25 13:33N 37°57' E 023°34'0 0.1
2015-Jan-25 12:33N 37°57' E 023°34'1 1.5
2015-Jan-25 11:33N 37°56' E 023°36'1 0.6
2015-Jan-25 09:25N 37°57' E 023°37'0 0.0
2015-Jan-25 08:29N 37°57' E 023°37'1 0.3
2015-Jan-25 06:33N 37°57' E 023°36'0 0.4
2015-Jan-25 05:33N 37°57' E 023°36'1 0.9
2015-Jan-25 04:30N 37°57' E 023°37'0 0.1
2015-Jan-25 03:34N 37°58' E 023°36'0 0.0
2015-Jan-23 17:28N 37°57' E 023°37'1 1.1
2015-Jan-23 16:34N 37°56' E 023°37'0 0.2
2015-Jan-23 15:33N 37°56' E 023°36'1 1.2
2015-Jan-23 14:33N 37°57' E 023°37'1 0.7
2015-Jan-23 13:34N 37°57' E 023°36'1 0.6
2015-Jan-23 12:33N 37°57' E 023°37'0 0.0
2015-Jan-23 11:33N 37°57' E 023°37'0 0.0
2015-Jan-23 10:33N 37°57' E 023°37'2 1.8
2015-Jan-23 09:34N 37°57' E 023°34'1 0.7
2015-Jan-23 08:33N 37°57' E 023°35'1 0.9
2015-Jan-23 07:33N 37°57' E 023°36'0 0.2
2015-Jan-23 06:33N 37°57' E 023°37'0 0.0
2015-Jan-23 05:34N 37°57' E 023°37'1 1.1
2015-Jan-23 04:33N 37°57' E 023°35'1 1.2
2015-Jan-23 03:33N 37°57' E 023°37'0 0.0
2015-Jan-23 02:33N 37°57' E 023°37'0 0.0
2015-Jan-23 01:33N 37°57' E 023°37'0 0.0
2015-Jan-23 00:33N 37°57' E 023°37'0 0.0
2015-Jan-22 23:33N 37°57' E 023°37'1 0.8
2015-Jan-22 22:33N 37°57' E 023°36'1 0.7
2015-Jan-22 21:33N 37°57' E 023°37'0 0.5
2015-Jan-22 20:34N 37°57' E 023°36'7 7.3
2015-Jan-22 19:33N 38°00' E 023°28'4 3.8
2015-Jan-22 18:33N 37°57' E 023°24'1 1.1
2015-Jan-22 17:33N 37°57' E 023°23'4 3.8
2015-Jan-22 16:33N 37°60' E 023°26'8 7.8
2015-Jan-22 15:34N 37°57' E 023°35'1 1.0
2015-Jan-22 14:33N 37°57' E 023°37'0 0.0
2015-Jan-22 13:33N 37°57' E 023°37'0 0.0
2015-Jan-22 12:33N 37°57' E 023°37'0 0.0
2015-Jan-22 11:33N 37°57' E 023°37'0 0.0
2015-Jan-22 10:33N 37°57' E 023°37'0 0.0
2015-Jan-22 09:33N 37°57' E 023°37'3 3.5
2015-Jan-22 08:33N 37°59' E 023°33'3 2.8
2015-Jan-22 07:33N 38°01' E 023°36'2 2.0
2015-Jan-22 06:33N 38°00' E 023°34'4 3.8
2015-Jan-22 05:33N 37°57' E 023°36'1 0.9
2015-Jan-22 04:33N 37°57' E 023°37'0 0.0
2015-Jan-21 18:17N 37°57' E 023°37'1 1.6
2015-Jan-21 17:34N 37°57' E 023°35'1 1.2
2015-Jan-21 16:34N 37°57' E 023°37'0 0.0
2015-Jan-21 15:34N 37°57' E 023°37'0 0.0
2015-Jan-21 14:34N 37°57' E 023°37'4 3.7
2015-Jan-21 13:34N 37°60' E 023°33'3 2.5
2015-Jan-21 12:32N 38°01' E 023°35'0 0.0
2015-Jan-21 10:27N 38°01' E 023°36'0 0.0
2015-Jan-21 09:33N 38°01' E 023°36'0 0.0
2015-Jan-21 08:33N 38°01' E 023°36'0 0.0
2015-Jan-21 07:30N 38°01' E 023°35'0 0.0
2015-Jan-21 06:27N 38°01' E 023°36'0 0.0
2015-Jan-21 05:33N 38°01' E 023°36'0 0.0
2015-Jan-21 04:33N 38°01' E 023°36'0 0.0
2015-Jan-21 03:33N 38°01' E 023°36'0 0.0
2015-Jan-21 02:32N 38°01' E 023°35'0 0.0
2015-Jan-21 01:33N 38°01' E 023°36'0 0.0
2015-Jan-21 00:33N 38°01' E 023°36'0 0.0
2015-Jan-20 23:32N 38°01' E 023°36'0 0.0
2015-Jan-20 22:30N 38°01' E 023°36'0 0.0
2015-Jan-20 21:34N 38°01' E 023°36'0 0.0
2015-Jan-20 20:33N 38°01' E 023°36'0 0.0
2015-Jan-20 19:34N 38°01' E 023°36'0 0.0
2015-Jan-20 18:34N 38°01' E 023°36'0 0.0
2015-Jan-20 17:31N 38°01' E 023°35'0 0.0
2015-Jan-20 16:34N 38°01' E 023°36'0 0.0
2015-Jan-20 15:34N 38°01' E 023°36'0 0.0
2015-Jan-20 14:33N 38°01' E 023°36'0 0.0
2015-Jan-20 13:33N 38°01' E 023°36'0 0.0
2015-Jan-20 12:33N 38°01' E 023°36'0 0.0
2015-Jan-20 11:33N 38°01' E 023°36'0 0.1
2015-Jan-20 10:33N 38°02' E 023°35'2 2.4
2015-Jan-20 09:33N 38°02' E 023°32'3 2.6
2015-Jan-20 08:34N 38°02' E 023°36'0 0.1
2015-Jan-20 07:29N 38°01' E 023°36'0 0.2
2015-Jan-20 06:34N 38°02' E 023°35'2 2.2
2015-Jan-20 05:33N 38°02' E 023°33'0 0.3
2015-Jan-20 04:34N 38°02' E 023°32'0 0.0
2015-Jan-20 03:33N 38°02' E 023°32'0 0.0
2015-Jan-20 02:32N 38°02' E 023°32'0 0.0
2015-Jan-20 01:33N 38°02' E 023°32'0 0.0
2015-Jan-20 00:34N 38°02' E 023°32'0 0.0
2015-Jan-19 23:34N 38°02' E 023°32'2 2.3
2015-Jan-19 22:33N 38°01' E 023°30'6 5.7
2015-Jan-19 21:33N 37°58' E 023°24'0 0.0
2015-Jan-19 20:34N 37°57' E 023°24'1 1.3
2015-Jan-19 19:34N 37°59' E 023°25'7 6.7
2015-Jan-19 18:34N 38°02' E 023°32'0 0.0
2015-Jan-19 17:33N 38°02' E 023°32'0 0.0
2015-Jan-19 16:34N 38°02' E 023°32'2 2.4
2015-Jan-19 15:33N 38°02' E 023°35'2 2.2
2015-Jan-19 14:33N 38°02' E 023°32'0 0.0
2015-Jan-19 13:33N 38°02' E 023°32'6 5.6
2015-Jan-19 12:33N 37°57' E 023°36'0 0.2
2015-Jan-19 11:34N 37°57' E 023°36'  
Track history (hours):
 
Tides and Currents Weather Stations Pressure Air Temp Water Temp Dewpoint Dewpoint Depression Visibility Wind Speed Wind Dir Waves Ship Positions

Armadores I

Last reported at 2015-Jan-29 11:34 UTC. Time now 2015-Jan-29 12:22 UTC.
Position N 37°58' E 023°36'.

Length 32 m; draft 5.3 m.

Type: Tug. MMSI: 240694000.

Date/timePositionNaut miles runAvg speedWind from/ knotsBaromVisibWave heightAir tempDewpointWater temp
2015-Jan-29 11:34N 37°58' E 023°36'1 0.5
2015-Jan-29 10:33N 37°57' E 023°36'0 0.3
2015-Jan-29 09:33N 37°57' E 023°36'0 0.4
2015-Jan-29 08:33N 37°57' E 023°37'0 0.0
2015-Jan-29 07:33N 37°57' E 023°37'0 0.0
2015-Jan-29 06:33N 37°57' E 023°37'1 1.0
2015-Jan-29 05:33N 37°57' E 023°36'1 1.0
2015-Jan-29 04:33N 37°57' E 023°37'0 0.0
2015-Jan-28 15:07N 37°57' E 023°36'0 0.0
2015-Jan-28 14:33N 37°57' E 023°36'0 0.4
2015-Jan-28 13:33N 37°57' E 023°37'2 2.2
2015-Jan-28 12:33N 37°58' E 023°34'1 1.1
2015-Jan-28 11:33N 37°58' E 023°33'4 3.7
2015-Jan-28 10:33N 38°02' E 023°32'3 2.7
2015-Jan-28 09:33N 38°01' E 023°36'0 0.1
2015-Jan-28 08:33N 38°02' E 023°36'2 2.0
2015-Jan-28 07:33N 38°00' E 023°34'3 3.2
2015-Jan-28 06:33N 37°57' E 023°34'2 1.7
2015-Jan-28 05:33N 37°56' E 023°35'2 1.6
2015-Jan-28 04:33N 37°57' E 023°35'1 0.1
2015-Jan-27 17:27N 37°57' E 023°37'1 0.7
2015-Jan-27 16:34N 37°57' E 023°36'1 0.7
2015-Jan-27 15:33N 37°57' E 023°37'0 0.0
2015-Jan-27 14:33N 37°57' E 023°37'1 1.2
2015-Jan-27 13:33N 37°57' E 023°35'1 1.2
2015-Jan-27 12:34N 37°57' E 023°37'0 0.0
2015-Jan-27 11:34N 37°57' E 023°37'0 0.0
2015-Jan-27 10:33N 37°57' E 023°37'0 0.0
2015-Jan-27 09:33N 37°57' E 023°37'0 0.0
2015-Jan-27 08:33N 37°57' E 023°37'0 0.0
2015-Jan-27 07:34N 37°57' E 023°37'1 1.1
2015-Jan-27 06:33N 37°57' E 023°35'1 1.3
2015-Jan-27 05:33N 37°56' E 023°36'1 1.2
2015-Jan-27 04:34N 37°57' E 023°35'0 0.0
2015-Jan-26 13:33N 37°57' E 023°35'5 4.6
2015-Jan-26 12:33N 38°02' E 023°36'4 4.4
2015-Jan-26 11:33N 37°58' E 023°33'1 1.4
2015-Jan-26 10:33N 37°57' E 023°35'0 0.5
2015-Jan-26 09:33N 37°57' E 023°35'1 0.5
2015-Jan-26 08:33N 37°57' E 023°36'0 0.3
2015-Jan-26 07:33N 37°57' E 023°35'1 1.0
2015-Jan-26 06:33N 37°57' E 023°37'0 0.0
2015-Jan-26 05:34N 37°57' E 023°37'0 0.0
2015-Jan-26 04:34N 37°57' E 023°37'0 0.0
2015-Jan-25 16:33N 37°57' E 023°36'6 5.8
2015-Jan-25 15:31N 38°02' E 023°32'4 3.4
2015-Jan-25 14:11N 37°58' E 023°33'2 2.5
2015-Jan-25 13:33N 37°57' E 023°34'0 0.1
2015-Jan-25 12:33N 37°57' E 023°34'1 1.5
2015-Jan-25 11:33N 37°56' E 023°36'1 0.6
2015-Jan-25 09:25N 37°57' E 023°37'0 0.0
2015-Jan-25 08:29N 37°57' E 023°37'1 0.3
2015-Jan-25 06:33N 37°57' E 023°36'0 0.4
2015-Jan-25 05:33N 37°57' E 023°36'1 0.9
2015-Jan-25 04:30N 37°57' E 023°37'0 0.1
2015-Jan-25 03:34N 37°58' E 023°36'0 0.0
2015-Jan-23 17:28N 37°57' E 023°37'1 1.1
2015-Jan-23 16:34N 37°56' E 023°37'0 0.2
2015-Jan-23 15:33N 37°56' E 023°36'1 1.2
2015-Jan-23 14:33N 37°57' E 023°37'1 0.7
2015-Jan-23 13:34N 37°57' E 023°36'1 0.6
2015-Jan-23 12:33N 37°57' E 023°37'0 0.0
2015-Jan-23 11:33N 37°57' E 023°37'0 0.0
2015-Jan-23 10:33N 37°57' E 023°37'2 1.8
2015-Jan-23 09:34N 37°57' E 023°34'1 0.7
2015-Jan-23 08:33N 37°57' E 023°35'1 0.9
2015-Jan-23 07:33N 37°57' E 023°36'0 0.2
2015-Jan-23 06:33N 37°57' E 023°37'0 0.0
2015-Jan-23 05:34N 37°57' E 023°37'1 1.1
2015-Jan-23 04:33N 37°57' E 023°35'1 1.2
2015-Jan-23 03:33N 37°57' E 023°37'0 0.0
2015-Jan-23 02:33N 37°57' E 023°37'0 0.0
2015-Jan-23 01:33N 37°57' E 023°37'0 0.0
2015-Jan-23 00:33N 37°57' E 023°37'0 0.0
2015-Jan-22 23:33N 37°57' E 023°37'1 0.8
2015-Jan-22 22:33N 37°57' E 023°36'1 0.7
2015-Jan-22 21:33N 37°57' E 023°37'0 0.5
2015-Jan-22 20:34N 37°57' E 023°36'7 7.3
2015-Jan-22 19:33N 38°00' E 023°28'4 3.8
2015-Jan-22 18:33N 37°57' E 023°24'1 1.1
2015-Jan-22 17:33N 37°57' E 023°23'4 3.8
2015-Jan-22 16:33N 37°60' E 023°26'8 7.8
2015-Jan-22 15:34N 37°57' E 023°35'1 1.0
2015-Jan-22 14:33N 37°57' E 023°37'0 0.0
2015-Jan-22 13:33N 37°57' E 023°37'0 0.0
2015-Jan-22 12:33N 37°57' E 023°37'0 0.0
2015-Jan-22 11:33N 37°57' E 023°37'0 0.0
2015-Jan-22 10:33N 37°57' E 023°37'0 0.0
2015-Jan-22 09:33N 37°57' E 023°37'3 3.5
2015-Jan-22 08:33N 37°59' E 023°33'3 2.8
2015-Jan-22 07:33N 38°01' E 023°36'2 2.0
2015-Jan-22 06:33N 38°00' E 023°34'4 3.8
2015-Jan-22 05:33N 37°57' E 023°36'1 0.9
2015-Jan-22 04:33N 37°57' E 023°37'0 0.0
2015-Jan-21 18:17N 37°57' E 023°37'1 1.6
2015-Jan-21 17:34N 37°57' E 023°35'1 1.2
2015-Jan-21 16:34N 37°57' E 023°37'0 0.0
2015-Jan-21 15:34N 37°57' E 023°37'0 0.0
2015-Jan-21 14:34N 37°57' E 023°37'4 3.7
2015-Jan-21 13:34N 37°60' E 023°33'3 2.5
2015-Jan-21 12:32N 38°01' E 023°35'0 0.0
2015-Jan-21 10:27N 38°01' E 023°36'0 0.0
2015-Jan-21 09:33N 38°01' E 023°36'0 0.0
2015-Jan-21 08:33N 38°01' E 023°36'0 0.0
2015-Jan-21 07:30N 38°01' E 023°35'0 0.0
2015-Jan-21 06:27N 38°01' E 023°36'0 0.0
2015-Jan-21 05:33N 38°01' E 023°36'0 0.0
2015-Jan-21 04:33N 38°01' E 023°36'0 0.0
2015-Jan-21 03:33N 38°01' E 023°36'0 0.0
2015-Jan-21 02:32N 38°01' E 023°35'0 0.0
2015-Jan-21 01:33N 38°01' E 023°36'0 0.0
2015-Jan-21 00:33N 38°01' E 023°36'0 0.0
2015-Jan-20 23:32N 38°01' E 023°36'0 0.0
2015-Jan-20 22:30N 38°01' E 023°36'0 0.0
2015-Jan-20 21:34N 38°01' E 023°36'0 0.0
2015-Jan-20 20:33N 38°01' E 023°36'0 0.0
2015-Jan-20 19:34N 38°01' E 023°36'0 0.0
2015-Jan-20 18:34N 38°01' E 023°36'0 0.0
2015-Jan-20 17:31N 38°01' E 023°35'0 0.0
2015-Jan-20 16:34N 38°01' E 023°36'0 0.0
2015-Jan-20 15:34N 38°01' E 023°36'0 0.0
2015-Jan-20 14:33N 38°01' E 023°36'0 0.0
2015-Jan-20 13:33N 38°01' E 023°36'0 0.0
2015-Jan-20 12:33N 38°01' E 023°36'0 0.0
2015-Jan-20 11:33N 38°01' E 023°36'0 0.1
2015-Jan-20 10:33N 38°02' E 023°35'2 2.4
2015-Jan-20 09:33N 38°02' E 023°32'3 2.6
2015-Jan-20 08:34N 38°02' E 023°36'0 0.1
2015-Jan-20 07:29N 38°01' E 023°36'0 0.2
2015-Jan-20 06:34N 38°02' E 023°35'2 2.2
2015-Jan-20 05:33N 38°02' E 023°33'0 0.3
2015-Jan-20 04:34N 38°02' E 023°32'0 0.0
2015-Jan-20 03:33N 38°02' E 023°32'0 0.0
2015-Jan-20 02:32N 38°02' E 023°32'0 0.0
2015-Jan-20 01:33N 38°02' E 023°32'0 0.0
2015-Jan-20 00:34N 38°02' E 023°32'0 0.0
2015-Jan-19 23:34N 38°02' E 023°32'2 2.3
2015-Jan-19 22:33N 38°01' E 023°30'6 5.7
2015-Jan-19 21:33N 37°58' E 023°24'0 0.0
2015-Jan-19 20:34N 37°57' E 023°24'1 1.3
2015-Jan-19 19:34N 37°59' E 023°25'7 6.7
2015-Jan-19 18:34N 38°02' E 023°32'0 0.0
2015-Jan-19 17:33N 38°02' E 023°32'0 0.0
2015-Jan-19 16:34N 38°02' E 023°32'2 2.4
2015-Jan-19 15:33N 38°02' E 023°35'2 2.2
2015-Jan-19 14:33N 38°02' E 023°32'0 0.0
2015-Jan-19 13:33N 38°02' E 023°32'6 5.6
2015-Jan-19 12:33N 37°57' E 023°36'0 0.2
2015-Jan-19 11:34N 37°57' E 023°36'  

Dump ship's entire track history